WetterOnline ( https://www.wetteronline.de )

Wetter aktuell Bonn

Aktuelles Wetter: Königswinter-Heiderhof (147m)

6-stündlich | Neueste Meldungen
Ortszeit Temperatur Wetter
So, 03.03. 13:00 12.7° C bedeckt
So, 03.03. 7:00 7.9° C bewölkt
So, 03.03. 1:00 10.5° C bedeckt
Sa, 02.03. 19:00 12.1° C bedeckt
Sa, 02.03. 13:00 12.1° C bewölkt
Sa, 02.03. 7:00 7.2° C bedeckt
Sa, 02.03. 1:00 6.9° C wolkig
Fr, 01.03. 19:00 9.0° C bedeckt
Ortszeit Temperatur Wetter
So, 03.03. 13:00 12.7° C bedeckt
So, 03.03. 12:50 12.7° C bedeckt
So, 03.03. 12:40 13.1° C bedeckt
So, 03.03. 12:30 12.6° C bedeckt
So, 03.03. 12:20 12.6° C bedeckt
So, 03.03. 12:10 13.1° C bedeckt
So, 03.03. 12:00 12.2° C bedeckt
So, 03.03. 11:30 11.8° C bewölkt
So, 03.03. 11:00 10.7° C bedeckt
So, 03.03. 10:30 10.0° C bedeckt
So, 03.03. 10:00 9.9° C bedeckt
Ortszeit Relative Feuchte Sichtweite
So, 03.03. 13:00 67% 30 km
So, 03.03. 7:00 82% 28 km
So, 03.03. 1:00 69% 50 km
Sa, 02.03. 19:00 56% 65 km
Sa, 02.03. 13:00 61% 65 km
Sa, 02.03. 7:00 70% >70 km
Sa, 02.03. 1:00 75% >70 km
Fr, 01.03. 19:00 60% >70 km
Ortszeit Relative Feuchte Sichtweite
So, 03.03. 13:00 67% 30 km
So, 03.03. 12:50 67% -
So, 03.03. 12:40 65% -
So, 03.03. 12:30 66% 30 km
So, 03.03. 12:20 66% -
So, 03.03. 12:10 68% -
So, 03.03. 12:00 71% 30 km
So, 03.03. 11:30 70% 30 km
So, 03.03. 11:00 71% 35 km
So, 03.03. 10:30 75% 30 km
So, 03.03. 10:00 76% 35 km
Ortszeit Niederschlagsmenge Niederschlagsart
So, 03.03. 13:00 0.0 l/m2 in 6 Std. -
So, 03.03. 7:00 0.0 l/m2 in 12 Std. -
So, 03.03. 1:00 0.0 l/m2 in 6 Std. -
Sa, 02.03. 19:00 0.0 l/m2 in 12 Std. -
Sa, 02.03. 13:00 0.0 l/m2 in 6 Std. -
Sa, 02.03. 7:00 0.0 l/m2 in 12 Std. -
Sa, 02.03. 1:00 0.0 l/m2 in 6 Std. -
Fr, 01.03. 19:00 0.1 l/m2 in 12 Std. -
Ortszeit Niederschlagsmenge Niederschlagsart
So, 03.03. 13:00 0.0 l/m2 in 1 Std. -
So, 03.03. 12:50 keine Meldung -
So, 03.03. 12:40 keine Meldung -
So, 03.03. 12:30 0.0 l/m2 in 30 Min -
So, 03.03. 12:20 keine Meldung -
So, 03.03. 12:10 keine Meldung -
So, 03.03. 12:00 0.0 l/m2 in 1 Std. -
So, 03.03. 11:30 0.0 l/m2 in 30 Min -
So, 03.03. 11:00 0.0 l/m2 in 1 Std. -
So, 03.03. 10:30 0.0 l/m2 in 30 Min -
So, 03.03. 10:00 0.0 l/m2 in 1 Std. -
Ortszeit Stärke Spitze Richtung
km/h Bft. km/h Grad Sektor
So, 03.03. 13:00 13 3 24 50° NO
So, 03.03. 7:00 11 2 25 120° SO
So, 03.03. 1:00 14 3 29 130° SO
Sa, 02.03. 19:00 14 3 36 110° O
Sa, 02.03. 13:00 22 4 36 140° SO
Sa, 02.03. 7:00 13 3 30 160° S
Sa, 02.03. 1:00 18 3 50 150° SO
Fr, 01.03. 19:00 24 4 41 160° S
Ortszeit Stärke Spitze Richtung
km/h Bft. km/h Grad Sektor
So, 03.03. 13:00 13 3 24 50° NO
So, 03.03. 12:50 13 3 - 50° NO
So, 03.03. 12:40 14 3 - 60° NO
So, 03.03. 12:30 11 2 18 70° O
So, 03.03. 12:20 11 2 - 70° O
So, 03.03. 12:10 11 2 - 60° NO
So, 03.03. 12:00 11 2 22 60° NO
So, 03.03. 11:30 13 3 19 60° NO
So, 03.03. 11:00 11 2 18 70° O
So, 03.03. 10:30 11 2 18 60° NO
So, 03.03. 10:00 11 2 18 90° O
Ortszeit Untergrenze Bedeckung Gattung
total tief tief mittel hoch
So, 03.03. 13:00 3300 m 8/8 8/8 - - -
So, 03.03. 7:00 2700 m 8/8 6/8 - - -
So, 03.03. 1:00 3000 m 8/8 8/8 - - -
Sa, 02.03. 19:00 1800 m 8/8 8/8 - - -
Sa, 02.03. 13:00 1410 m 7/8 6/8 - - -
Sa, 02.03. 7:00 2400 m 8/8 8/8 - - -
Sa, 02.03. 1:00 8700 m 7/8 0/8 - - -
Fr, 01.03. 19:00 5700 m 8/8 8/8 - - -
Ortszeit Bedeckungsgrad in Achtel und Wolkenuntergrenze
So, 03.03. 13:00 8(3300m) 8(4200m)
So, 03.03. 12:50 8(3300m) 8(4200m)
So, 03.03. 12:40 8
So, 03.03. 12:30 8(3300m) 8(9000m)
So, 03.03. 12:20 8(3300m) 8(9000m)
So, 03.03. 12:10 8
So, 03.03. 12:00 8(3300m) 8(4200m) 8(9000m)
So, 03.03. 11:30 7(3300m) 8(9000m)
So, 03.03. 11:00 8(3000m) 8(4200m)
So, 03.03. 10:30 8(3000m) 8(4200m)
So, 03.03. 10:00 8(3000m)
Ortszeit Luftdruck NN (hPa) Tendenz (hPa in 3 Std.)
So, 03.03. 13:00 1000 - 1,2
So, 03.03. 7:00 1001 + 0,7
So, 03.03. 1:00 1000 - 0,3
Sa, 02.03. 19:00 1001 - 0,2
Sa, 02.03. 13:00 1003 - 0,5
Sa, 02.03. 7:00 1003 + 0,8
Sa, 02.03. 1:00 1003 - 0,4
Fr, 01.03. 19:00 1004 - 0,6
Ortszeit Luftdruck NN (hPa) Tendenz (hPa in 3 Std.)
So, 03.03. 13:00 1000 - 1,2
So, 03.03. 12:50 1000 keine Meldung
So, 03.03. 12:40 1000 keine Meldung
So, 03.03. 12:30 1000 - 1,0
So, 03.03. 12:20 1000 keine Meldung
So, 03.03. 12:10 1000 keine Meldung
So, 03.03. 12:00 1000 - 0,5
So, 03.03. 11:30 1001 + 0,1
So, 03.03. 11:00 1001 + 0,3
So, 03.03. 10:30 1001 + 0,4
So, 03.03. 10:00 1001 + 0,6
Ortszeit Schneehöhe (cm)
So, 03.03. 13:00 0
So, 03.03. 7:00 0
So, 03.03. 1:00 0
Sa, 02.03. 19:00 0
Sa, 02.03. 13:00 0
Sa, 02.03. 7:00 0
Sa, 02.03. 1:00 0
Fr, 01.03. 19:00 0
Ortszeit Schneehöhe (cm)
So, 03.03. 13:00 0
So, 03.03. 12:50 0
So, 03.03. 12:40 -
So, 03.03. 12:30 0
So, 03.03. 12:20 0
So, 03.03. 12:10 -
So, 03.03. 12:00 0
So, 03.03. 11:30 0
So, 03.03. 11:00 0
So, 03.03. 10:30 0
So, 03.03. 10:00 0
Link zu dieser Seite / Seite empfehlen

Das Wetter in ...